createdAt,value
2018-02-22T00:00:06.548Z,0.11
2018-02-22T00:02:34.133Z,0.21
2018-02-22T00:05:01.675Z,-0.04
2018-02-22T00:07:29.262Z,0.18
2018-02-22T00:09:57.183Z,-0.03
2018-02-22T00:12:25.108Z,0.18
2018-02-22T00:14:52.696Z,-0.02
2018-02-22T00:17:20.250Z,-0.20
2018-02-22T00:19:48.103Z,0.03
2018-02-22T00:22:19.004Z,-0.11
2018-02-22T00:24:46.688Z,-0.03
2018-02-22T00:27:14.318Z,0.11
2018-02-22T00:29:41.997Z,-0.30
2018-02-22T00:32:09.607Z,0.03
2018-02-22T00:34:37.276Z,-0.16
2018-02-22T00:37:04.914Z,-0.03
2018-02-22T00:39:32.528Z,-0.04
2018-02-22T00:42:00.283Z,-0.13
2018-02-22T00:44:28.500Z,-0.23
2018-02-22T00:46:56.111Z,-0.16
2018-02-22T00:49:23.685Z,-0.06
2018-02-22T00:51:51.456Z,-0.11
2018-02-22T00:54:19.074Z,-0.12
2018-02-22T00:56:46.716Z,-0.09
2018-02-22T00:59:14.393Z,-0.17
2018-02-22T01:01:42.014Z,-0.15
2018-02-22T01:04:09.624Z,-0.17
2018-02-22T01:06:37.151Z,-0.17
2018-02-22T01:09:05.209Z,-0.08
2018-02-22T01:11:33.132Z,-0.12
2018-02-22T01:14:00.729Z,-0.04
2018-02-22T01:16:28.318Z,-0.18
2018-02-22T01:18:55.851Z,-0.43
2018-02-22T01:21:23.440Z,-0.19
2018-02-22T01:23:50.998Z,-0.23
2018-02-22T01:26:18.591Z,-0.46
2018-02-22T01:28:46.138Z,-0.31
2018-02-22T01:31:13.667Z,-0.32
2018-02-22T01:33:41.242Z,-0.33
2018-02-22T01:36:09.199Z,-0.39
2018-02-22T01:38:36.800Z,-0.22
2018-02-22T01:41:04.360Z,-0.30
2018-02-22T01:43:31.962Z,-0.46
2018-02-22T01:45:59.899Z,-0.53
2018-02-22T01:48:27.475Z,-0.35
2018-02-22T01:50:55.011Z,-0.37
2018-02-22T01:53:22.579Z,-0.35
2018-02-22T01:55:50.240Z,-0.43
2018-02-22T01:58:17.800Z,-0.43
2018-02-22T02:00:45.417Z,-0.54
2018-02-22T02:03:13.243Z,-0.43
2018-02-22T02:05:40.872Z,-0.50
2018-02-22T02:08:08.535Z,-0.47
2018-02-22T02:10:36.135Z,-0.59
2018-02-22T02:13:03.754Z,-0.45
2018-02-22T02:15:31.454Z,-0.49
2018-02-22T02:17:59.038Z,-0.59
2018-02-22T02:20:26.610Z,-0.70
2018-02-22T02:22:54.212Z,-0.49
2018-02-22T02:25:21.736Z,-0.43
2018-02-22T02:27:54.869Z,-0.35
2018-02-22T02:30:22.410Z,-0.46
2018-02-22T02:32:50.014Z,-0.62
2018-02-22T02:35:17.556Z,-0.54
2018-02-22T02:37:45.084Z,-0.71
2018-02-22T02:40:13.963Z,-0.60
2018-02-22T02:42:41.983Z,-0.76
2018-02-22T02:45:09.562Z,-0.72
2018-02-22T02:47:37.185Z,-0.51
2018-02-22T02:50:04.939Z,-0.69
2018-02-22T02:52:32.621Z,-0.49
2018-02-22T02:55:00.345Z,-0.60
2018-02-22T02:57:28.092Z,-0.49
2018-02-22T02:59:58.785Z,-0.66
2018-02-22T03:02:27.186Z,-0.77
2018-02-22T03:04:54.759Z,-0.69
2018-02-22T03:07:22.432Z,-0.49
2018-02-22T03:09:49.958Z,-0.49
2018-02-22T03:12:17.515Z,-0.45
2018-02-22T03:14:45.112Z,-0.61
2018-02-22T03:17:15.796Z,-0.58
2018-02-22T03:19:46.459Z,-0.51
2018-02-22T03:22:17.711Z,-0.57
2018-02-22T03:24:48.400Z,-0.51
2018-02-22T03:27:18.390Z,-0.79
2018-02-22T03:29:47.868Z,-0.56
2018-02-22T03:32:19.016Z,-0.65
2018-02-22T03:34:47.150Z,-0.72
2018-02-22T03:37:14.753Z,-0.80
2018-02-22T03:39:42.365Z,-0.68
2018-02-22T03:42:09.931Z,-0.70
2018-02-22T03:44:37.605Z,-0.64
2018-02-22T03:47:05.213Z,-0.62
2018-02-22T03:49:32.829Z,-0.56
2018-02-22T03:52:00.487Z,-0.76
2018-02-22T03:54:28.055Z,-0.71
2018-02-22T03:56:55.856Z,-0.63
2018-02-22T03:59:23.483Z,-0.59
2018-02-22T04:01:51.102Z,-0.78
2018-02-22T04:04:18.696Z,-0.97
2018-02-22T04:06:46.360Z,-0.94
2018-02-22T04:09:14.042Z,-0.75
2018-02-22T04:11:41.612Z,-1.01
2018-02-22T04:14:09.479Z,-0.79
2018-02-22T04:16:37.392Z,-0.90
2018-02-22T04:19:05.287Z,-0.88
2018-02-22T04:21:33.247Z,-0.76
2018-02-22T04:24:01.070Z,-0.68
2018-02-22T04:26:29.039Z,-0.69
2018-02-22T04:28:56.926Z,-0.63
2018-02-22T04:31:24.822Z,-0.68
2018-02-22T04:33:52.450Z,-0.77
2018-02-22T04:36:20.022Z,-0.86
2018-02-22T04:38:47.624Z,-0.97
2018-02-22T04:41:15.216Z,-0.70
2018-02-22T04:43:42.859Z,-0.84
2018-02-22T04:46:10.442Z,-0.80
2018-02-22T04:48:38.076Z,-0.85
2018-02-22T04:51:05.906Z,-0.70
2018-02-22T04:53:33.546Z,-0.70
2018-02-22T04:56:01.156Z,-0.81
2018-02-22T04:58:28.889Z,-0.98
2018-02-22T05:00:56.508Z,-0.92
2018-02-22T05:03:24.057Z,-0.77
2018-02-22T05:05:51.652Z,-0.74
2018-02-22T05:08:19.317Z,-0.77
2018-02-22T05:10:46.920Z,-0.94
2018-02-22T05:13:14.469Z,-0.75
2018-02-22T05:15:42.142Z,-1.09
2018-02-22T05:18:09.714Z,-0.79
2018-02-22T05:20:37.275Z,-0.77
2018-02-22T05:23:04.878Z,-0.82
2018-02-22T05:25:32.409Z,-0.93
2018-02-22T05:28:01.071Z,-0.78
2018-02-22T05:30:28.600Z,-0.72
2018-02-22T05:32:56.132Z,-0.83
2018-02-22T05:35:23.686Z,-0.96
2018-02-22T05:37:51.225Z,-0.88
2018-02-22T05:40:18.795Z,-0.86
2018-02-22T05:42:46.319Z,-0.74
2018-02-22T05:45:14.228Z,-0.90
2018-02-22T05:47:41.834Z,-0.84
2018-02-22T05:50:11.624Z,-0.73
2018-02-22T05:52:39.643Z,-1.18
2018-02-22T05:55:07.229Z,-0.86
2018-02-22T05:57:35.246Z,-0.83
2018-02-22T06:00:03.146Z,-0.86
2018-02-22T06:02:31.830Z,-1.12
2018-02-22T06:04:59.400Z,-0.89
2018-02-22T06:07:26.991Z,-0.95
2018-02-22T06:09:54.806Z,-0.99
2018-02-22T06:12:22.804Z,-0.88
2018-02-22T06:14:50.912Z,-1.04
2018-02-22T06:17:22.511Z,-1.06
2018-02-22T06:19:52.271Z,-0.88
2018-02-22T06:22:22.279Z,-0.77
2018-02-22T06:24:50.306Z,-0.95
2018-02-22T06:27:18.184Z,-1.00
2018-02-22T06:29:45.829Z,-0.92
2018-02-22T06:32:13.415Z,-0.97
2018-02-22T06:34:42.199Z,-1.04
2018-02-22T06:37:10.301Z,-0.89
2018-02-22T06:39:37.936Z,-1.05
2018-02-22T06:42:05.476Z,-0.93
2018-02-22T06:44:33.008Z,-1.03
2018-02-22T06:47:01.768Z,-0.84
2018-02-22T06:49:29.710Z,-0.82
2018-02-22T06:51:57.357Z,-0.84
2018-02-22T06:54:25.173Z,-0.94
2018-02-22T06:56:52.795Z,-0.90
2018-02-22T06:59:20.390Z,-0.85
2018-02-22T07:01:48.092Z,-0.70
2018-02-22T07:04:15.718Z,-0.82
2018-02-22T07:06:43.292Z,-0.83
2018-02-22T07:09:10.896Z,-0.78
2018-02-22T07:11:38.764Z,-0.78
2018-02-22T07:14:06.453Z,-0.71
2018-02-22T07:16:34.396Z,-0.54
2018-02-22T07:19:02.507Z,-0.69
2018-02-22T07:21:30.089Z,-0.54
2018-02-22T07:23:57.714Z,-0.43
2018-02-22T07:26:25.304Z,-0.65
2018-02-22T07:28:52.873Z,-0.60
2018-02-22T07:31:20.427Z,-0.47
2018-02-22T07:33:48.185Z,-0.41
2018-02-22T07:36:16.472Z,-0.45
2018-02-22T07:38:44.012Z,-0.51
2018-02-22T07:41:11.586Z,-0.33
2018-02-22T07:43:39.176Z,-0.28
2018-02-22T07:46:06.812Z,-0.22
2018-02-22T07:48:34.440Z,-0.20
2018-02-22T07:51:02.464Z,-0.29
2018-02-22T07:53:30.018Z,-0.16
2018-02-22T07:55:57.568Z,-0.20
2018-02-22T07:58:25.172Z,-0.08
2018-02-22T08:00:52.763Z,0.03
2018-02-22T08:03:24.104Z,0.08
2018-02-22T08:05:52.367Z,0.06
2018-02-22T08:08:20.013Z,0.01
2018-02-22T08:10:47.587Z,0.27
2018-02-22T08:13:15.170Z,0.20
2018-02-22T08:15:43.067Z,0.23
2018-02-22T08:18:10.828Z,0.24
2018-02-22T08:20:38.437Z,0.49
2018-02-22T08:23:06.026Z,0.45
2018-02-22T08:25:33.605Z,0.43
2018-02-22T08:28:01.183Z,0.44
2018-02-22T08:30:28.804Z,0.54
2018-02-22T08:32:56.599Z,0.62
2018-02-22T08:35:24.373Z,0.66
2018-02-22T08:37:52.188Z,0.54
2018-02-22T08:40:19.915Z,0.55
2018-02-22T08:42:47.744Z,0.51
2018-02-22T08:45:15.895Z,0.59
2018-02-22T08:47:43.990Z,0.59
2018-02-22T08:50:13.697Z,0.64
2018-02-22T08:52:41.585Z,0.62
2018-02-22T08:55:09.458Z,0.77
2018-02-22T08:57:37.331Z,0.78
2018-02-22T09:00:05.214Z,0.81
2018-02-22T09:02:33.738Z,0.82
2018-02-22T09:05:01.260Z,0.85
2018-02-22T09:07:28.806Z,0.88
2018-02-22T09:09:56.376Z,0.95
2018-02-22T09:12:23.916Z,1.06
2018-02-22T09:14:51.474Z,1.12
2018-02-22T09:17:19.312Z,1.00
2018-02-22T09:19:46.876Z,1.00
2018-02-22T09:22:16.318Z,1.25
2018-02-22T09:24:46.569Z,1.23
2018-02-22T09:27:14.338Z,1.29
2018-02-22T09:29:42.183Z,1.24
2018-02-22T09:32:10.866Z,1.36
2018-02-22T09:34:38.761Z,1.42
2018-02-22T09:37:06.285Z,1.40
2018-02-22T09:39:33.881Z,1.42
2018-02-22T09:42:01.434Z,1.38
2018-02-22T09:44:29.070Z,1.41
2018-02-22T09:46:56.622Z,1.44
2018-02-22T09:49:24.154Z,1.52
2018-02-22T09:51:51.752Z,1.60
2018-02-22T09:54:19.308Z,1.58
2018-02-22T09:56:46.861Z,1.54
2018-02-22T09:59:14.410Z,1.82
2018-02-22T10:01:42.003Z,1.83
2018-02-22T10:04:09.781Z,1.80
2018-02-22T10:06:37.327Z,1.80
2018-02-22T10:09:05.000Z,1.72
2018-02-22T10:11:32.738Z,1.80
2018-02-22T10:14:00.315Z,2.00
2018-02-22T10:16:27.879Z,1.99
2018-02-22T10:18:55.456Z,2.12
2018-02-22T10:21:23.186Z,2.12
2018-02-22T10:23:50.766Z,2.18
2018-02-22T10:26:18.372Z,2.29
2018-02-22T10:28:45.986Z,2.21
2018-02-22T10:31:13.870Z,2.04
2018-02-22T10:33:41.491Z,2.25
2018-02-22T10:36:09.100Z,2.19
2018-02-22T10:38:36.726Z,2.32
2018-02-22T10:41:04.435Z,2.39
2018-02-22T10:43:32.070Z,2.38
2018-02-22T10:45:59.627Z,2.44
2018-02-22T10:48:27.432Z,2.51
2018-02-22T10:50:55.185Z,2.33
2018-02-22T10:53:22.817Z,2.30
2018-02-22T10:55:50.822Z,2.54
2018-02-22T10:58:18.416Z,2.49
2018-02-22T11:00:51.866Z,2.56
2018-02-22T11:03:19.412Z,2.60
2018-02-22T11:05:47.139Z,2.49
2018-02-22T11:08:14.869Z,2.45
2018-02-22T11:10:42.444Z,2.50
2018-02-22T11:13:09.964Z,2.43
2018-02-22T11:15:37.698Z,2.57
2018-02-22T11:18:05.478Z,2.61
2018-02-22T11:20:33.128Z,2.54
2018-02-22T11:23:00.731Z,2.80
2018-02-22T11:25:28.407Z,3.03
2018-02-22T11:27:55.940Z,2.92
2018-02-22T11:30:23.549Z,2.83
2018-02-22T11:32:51.259Z,2.67
2018-02-22T11:35:18.866Z,2.93
2018-02-22T11:37:46.601Z,2.89
2018-02-22T11:40:17.002Z,2.79
2018-02-22T11:42:47.554Z,2.99
2018-02-22T11:45:17.881Z,3.23
2018-02-22T11:47:48.376Z,3.02
2018-02-22T11:50:17.565Z,3.01
2018-02-22T11:52:47.114Z,3.00
2018-02-22T11:55:15.699Z,3.00
2018-02-22T11:57:44.996Z,2.90
2018-02-22T12:00:13.576Z,3.16
2018-02-22T12:02:44.759Z,3.27
2018-02-22T12:05:12.519Z,3.24
2018-02-22T12:07:42.191Z,3.41
2018-02-22T12:10:10.833Z,3.43
2018-02-22T12:12:40.094Z,3.18
2018-02-22T12:15:10.614Z,3.32
2018-02-22T12:17:39.892Z,3.36
2018-02-22T12:20:08.268Z,3.34
2018-02-22T12:22:35.943Z,3.37
2018-02-22T12:25:08.166Z,3.37
2018-02-22T12:27:37.574Z,3.48
2018-02-22T12:30:07.123Z,3.56
2018-02-22T12:32:35.906Z,3.61
2018-02-22T12:35:07.350Z,3.60
2018-02-22T12:37:36.509Z,3.43
2018-02-22T12:40:05.265Z,3.55
2018-02-22T12:42:35.251Z,3.46
2018-02-22T12:45:02.784Z,3.65
2018-02-22T12:47:34.437Z,3.68
2018-02-22T12:50:05.091Z,3.65
2018-02-22T12:52:34.508Z,3.60
2018-02-22T12:55:02.168Z,3.76
2018-02-22T12:57:29.723Z,3.64
2018-02-22T13:00:00.290Z,3.73
2018-02-22T13:02:30.831Z,3.96
2018-02-22T13:04:58.599Z,3.94
2018-02-22T13:07:27.555Z,4.11
2018-02-22T13:09:58.670Z,3.96
2018-02-22T13:12:27.126Z,3.92
2018-02-22T13:14:55.005Z,3.93
2018-02-22T13:17:24.269Z,4.11
2018-02-22T13:19:54.964Z,4.05
2018-02-22T13:22:22.741Z,4.00
2018-02-22T13:24:55.102Z,3.94
2018-02-22T13:27:23.541Z,4.05
2018-02-22T13:29:54.502Z,4.09
2018-02-22T13:32:22.400Z,4.19
2018-02-22T13:34:51.542Z,4.14
2018-02-22T13:37:32.348Z,4.17
2018-02-22T13:40:02.475Z,4.17
2018-02-22T13:42:33.815Z,4.33
2018-02-22T13:45:15.187Z,4.11
2018-02-22T13:47:42.936Z,4.19
2018-02-22T13:50:22.713Z,4.12
2018-02-22T13:52:50.264Z,4.15
2018-02-22T13:55:17.793Z,4.14
2018-02-22T13:57:45.343Z,4.52
2018-02-22T14:00:12.895Z,4.55
2018-02-22T14:02:40.482Z,4.35
2018-02-22T14:05:08.154Z,4.21
2018-02-22T14:07:35.673Z,4.32
2018-02-22T14:10:03.240Z,4.20
2018-02-22T14:12:30.938Z,4.23
2018-02-22T14:14:58.623Z,4.49
2018-02-22T14:17:26.319Z,4.33
2018-02-22T14:19:53.895Z,4.17
2018-02-22T14:22:21.466Z,4.02
2018-02-22T14:24:49.046Z,4.19
2018-02-22T14:27:16.578Z,4.32
2018-02-22T14:29:44.117Z,4.48
2018-02-22T14:32:11.785Z,4.65
2018-02-22T14:34:39.308Z,4.36
2018-02-22T14:37:08.664Z,4.37
2018-02-22T14:39:36.196Z,4.37
2018-02-22T14:42:03.757Z,4.18
2018-02-22T14:44:31.269Z,4.30
2018-02-22T14:46:58.825Z,4.28
2018-02-22T14:49:26.374Z,4.26
2018-02-22T14:51:53.999Z,3.89
2018-02-22T14:54:21.581Z,3.87
2018-02-22T14:56:49.585Z,3.75
2018-02-22T14:59:17.334Z,3.97
2018-02-22T15:01:46.195Z,3.86
2018-02-22T15:04:17.937Z,3.87
2018-02-22T15:06:45.655Z,3.46
2018-02-22T15:09:13.208Z,3.69
2018-02-22T15:11:40.715Z,3.61
2018-02-22T15:14:09.945Z,3.70
2018-02-22T15:16:37.959Z,3.47
2018-02-22T15:19:05.508Z,3.36
2018-02-22T15:21:33.204Z,3.52
2018-02-22T15:24:00.725Z,3.45
2018-02-22T15:26:28.367Z,3.32
2018-02-22T15:28:56.725Z,3.41
2018-02-22T15:31:24.314Z,3.20
2018-02-22T15:33:51.867Z,3.30
2018-02-22T15:36:19.411Z,3.19
2018-02-22T15:38:46.945Z,3.50
2018-02-22T15:41:14.492Z,3.39
2018-02-22T15:43:42.032Z,3.64
2018-02-22T15:46:09.557Z,3.74
2018-02-22T15:48:38.105Z,3.43
2018-02-22T15:51:05.676Z,3.56
2018-02-22T15:53:33.226Z,3.43
2018-02-22T15:56:00.756Z,3.47
2018-02-22T15:58:28.307Z,3.45
2018-02-22T16:00:55.961Z,3.39
2018-02-22T16:03:23.512Z,3.68
2018-02-22T16:05:51.088Z,3.72
2018-02-22T16:08:18.694Z,3.83
2018-02-22T16:10:46.259Z,3.61
2018-02-22T16:13:13.904Z,3.67
2018-02-22T16:15:41.459Z,3.54
2018-02-22T16:18:08.982Z,3.66
2018-02-22T16:20:36.532Z,3.78
2018-02-22T16:23:04.123Z,3.38
2018-02-22T16:25:31.660Z,3.46
2018-02-22T16:27:59.235Z,3.40
2018-02-22T16:30:26.810Z,3.07
2018-02-22T16:32:54.394Z,2.90
2018-02-22T16:35:21.915Z,3.05
2018-02-22T16:37:49.475Z,2.71
2018-02-22T16:40:17.020Z,2.54
2018-02-22T16:42:44.575Z,2.65
2018-02-22T16:45:12.121Z,2.72
2018-02-22T16:47:39.653Z,2.65
2018-02-22T16:50:07.215Z,2.60
2018-02-22T16:52:34.737Z,2.54
2018-02-22T16:55:02.362Z,2.41
2018-02-22T16:57:29.892Z,2.26
2018-02-22T16:59:57.473Z,2.45
2018-02-22T17:02:25.019Z,2.37
2018-02-22T17:04:54.474Z,2.42
2018-02-22T17:07:22.052Z,2.23
2018-02-22T17:09:49.974Z,2.26
2018-02-22T17:12:20.761Z,2.29
2018-02-22T17:14:50.382Z,2.30
2018-02-22T17:17:21.721Z,2.19
2018-02-22T17:19:49.737Z,2.23
2018-02-22T17:22:17.514Z,2.11
2018-02-22T17:24:45.193Z,2.23
2018-02-22T17:27:18.240Z,2.12
2018-02-22T17:29:55.001Z,2.10
2018-02-22T17:32:26.104Z,2.26
2018-02-22T17:34:55.072Z,2.17
2018-02-22T17:37:25.689Z,2.13
2018-02-22T17:39:59.340Z,2.17
2018-02-22T17:42:51.143Z,2.03
2018-02-22T17:45:21.990Z,2.15
2018-02-22T17:47:53.605Z,2.06
2018-02-22T17:50:25.355Z,2.02
2018-02-22T17:52:56.192Z,1.94
2018-02-22T17:55:31.289Z,1.88
2018-02-22T17:58:06.372Z,1.81
2018-02-22T18:00:34.702Z,1.70
2018-02-22T18:03:02.522Z,1.89
2018-02-22T18:05:30.472Z,1.90
2018-02-22T18:07:58.876Z,1.88
2018-02-22T18:10:27.699Z,1.82
2018-02-22T18:12:57.845Z,1.77
2018-02-22T18:15:27.457Z,1.82
2018-02-22T18:17:56.823Z,1.73
2018-02-22T18:20:26.495Z,1.52
2018-02-22T18:22:55.729Z,1.65
2018-02-22T18:25:24.772Z,1.58
2018-02-22T18:27:54.735Z,1.51
2018-02-22T18:30:23.728Z,1.62
2018-02-22T18:32:58.171Z,1.58
2018-02-22T18:35:25.772Z,1.57
2018-02-22T18:38:00.724Z,1.59
2018-02-22T18:40:37.704Z,1.53
2018-02-22T18:43:11.562Z,1.60
2018-02-22T18:45:39.092Z,1.32
2018-02-22T18:48:08.202Z,1.37
2018-02-22T18:50:35.862Z,1.32
2018-02-22T18:53:03.379Z,1.44
2018-02-22T18:55:31.557Z,1.38
2018-02-22T18:57:59.105Z,1.31
2018-02-22T19:00:26.659Z,1.17
2018-02-22T19:02:55.878Z,1.24
2018-02-22T19:05:23.507Z,1.17
2018-02-22T19:07:51.060Z,1.27
2018-02-22T19:10:18.764Z,1.20
2018-02-22T19:12:46.291Z,1.08
2018-02-22T19:15:13.819Z,1.19
2018-02-22T19:17:41.415Z,1.13
2018-02-22T19:20:08.968Z,1.08
2018-02-22T19:22:36.637Z,1.24
2018-02-22T19:25:04.177Z,1.02
2018-02-22T19:27:31.740Z,1.12
2018-02-22T19:29:59.528Z,1.05
2018-02-22T19:32:27.181Z,0.89
2018-02-22T19:34:54.796Z,0.95
2018-02-22T19:37:23.000Z,0.82
2018-02-22T19:39:50.636Z,0.79
2018-02-22T19:42:21.974Z,0.83
2018-02-22T19:44:49.707Z,0.93
2018-02-22T19:47:17.641Z,0.73
2018-02-22T19:49:45.175Z,0.82
2018-02-22T19:52:14.971Z,0.88
2018-02-22T19:54:42.517Z,0.96
2018-02-22T19:57:10.067Z,0.90
2018-02-22T19:59:37.596Z,0.59
2018-02-22T20:02:05.186Z,0.75
2018-02-22T20:04:32.934Z,0.77
2018-02-22T20:07:00.844Z,0.80
2018-02-22T20:09:28.434Z,0.71
2018-02-22T20:11:55.971Z,0.55
2018-02-22T20:14:23.839Z,0.73
2018-02-22T20:16:51.776Z,0.49
2018-02-22T20:19:19.697Z,0.47
2018-02-22T20:21:47.242Z,0.66
2018-02-22T20:24:15.180Z,0.54
2018-02-22T20:26:45.451Z,0.65
2018-02-22T20:29:13.165Z,0.60
2018-02-22T20:31:40.789Z,0.45
2018-02-22T20:34:09.136Z,0.32
2018-02-22T20:36:36.955Z,0.52
2018-02-22T20:39:04.491Z,0.48
2018-02-22T20:41:32.048Z,0.52
2018-02-22T20:43:59.691Z,0.48
2018-02-22T20:46:27.287Z,0.36
2018-02-22T20:48:54.803Z,0.42
2018-02-22T20:51:23.844Z,0.48
2018-02-22T20:53:52.260Z,0.44
2018-02-22T20:56:20.486Z,0.25
2018-02-22T20:58:49.510Z,0.34
2018-02-22T21:01:17.740Z,0.36
2018-02-22T21:03:46.146Z,0.23
2018-02-22T21:06:14.021Z,0.39
2018-02-22T21:08:42.291Z,0.30
2018-02-22T21:11:10.469Z,0.32
2018-02-22T21:13:38.122Z,0.40
2018-02-22T21:16:06.496Z,0.29
2018-02-22T21:18:34.690Z,0.24
2018-02-22T21:21:02.719Z,0.28
2018-02-22T21:23:30.283Z,0.15
2018-02-22T21:25:58.316Z,0.17
2018-02-22T21:28:25.947Z,0.13
2018-02-22T21:30:54.076Z,0.13
2018-02-22T21:33:21.700Z,-0.04
2018-02-22T21:35:49.801Z,0.05
2018-02-22T21:38:17.426Z,-0.05
2018-02-22T21:40:45.009Z,-0.04
2018-02-22T21:43:15.279Z,0.11
2018-02-22T21:45:44.049Z,0.15
2018-02-22T21:48:12.316Z,0.12
2018-02-22T21:50:39.929Z,0.06
2018-02-22T21:53:08.181Z,-0.08
2018-02-22T21:55:36.469Z,-0.16
2018-02-22T21:58:04.710Z,-0.05
2018-02-22T22:00:32.700Z,-0.04
2018-02-22T22:03:00.973Z,-0.17
2018-02-22T22:05:29.218Z,-0.20
2018-02-22T22:07:57.519Z,-0.20
2018-02-22T22:10:25.740Z,-0.40
2018-02-22T22:12:53.976Z,-0.18
2018-02-22T22:15:22.202Z,-0.16
2018-02-22T22:17:52.626Z,-0.26
2018-02-22T22:20:20.435Z,-0.20
2018-02-22T22:22:48.006Z,-0.15
2018-02-22T22:25:15.550Z,-0.27
2018-02-22T22:27:43.094Z,-0.20
2018-02-22T22:30:11.141Z,-0.28
2018-02-22T22:32:38.704Z,-0.18
2018-02-22T22:35:06.225Z,-0.28
2018-02-22T22:37:33.786Z,-0.31
2018-02-22T22:40:01.322Z,-0.19
2018-02-22T22:42:28.889Z,-0.23
2018-02-22T22:44:56.416Z,-0.19
2018-02-22T22:47:23.983Z,-0.18
2018-02-22T22:49:51.511Z,-0.25
2018-02-22T22:52:19.076Z,-0.51
2018-02-22T22:54:46.625Z,-0.44
2018-02-22T22:57:14.195Z,-0.30
2018-02-22T22:59:41.728Z,-0.31
2018-02-22T23:02:09.306Z,-0.44
2018-02-22T23:04:36.847Z,-0.59
2018-02-22T23:07:04.387Z,-0.37
2018-02-22T23:09:31.978Z,-0.50
2018-02-22T23:11:59.539Z,-0.43
2018-02-22T23:14:27.128Z,-0.52
2018-02-22T23:16:54.664Z,-0.53
2018-02-22T23:19:22.233Z,-0.60
2018-02-22T23:21:49.772Z,-0.51
2018-02-22T23:24:17.327Z,-0.57
2018-02-22T23:26:44.839Z,-0.58
2018-02-22T23:29:12.391Z,-0.60
2018-02-22T23:31:39.923Z,-0.43
2018-02-22T23:34:07.500Z,-0.45
2018-02-22T23:36:35.053Z,-0.49
2018-02-22T23:39:02.612Z,-0.50
2018-02-22T23:41:35.713Z,-0.54
2018-02-22T23:44:03.290Z,-0.62
2018-02-22T23:46:30.852Z,-0.81
2018-02-22T23:48:58.405Z,-0.61
2018-02-22T23:51:25.943Z,-0.78
2018-02-22T23:53:53.482Z,-0.52
2018-02-22T23:56:21.028Z,-0.72
2018-02-22T23:58:48.621Z,-0.67
